Etusivu
METAR-TAF:

METAR-TAF

Lentoasemat :

Lontoo-Southend, Englanti

Leveyspiiri: 51-34N, Pituuspiiri: 000-42E, korkeus merenpinnasta: 15 m

Tämänhetkinen sää

Tämä raportti tehtiin 28 minuuttia sitten, kello 21.50 UTC
Tuuli 7 kn lännestä/luoteesta
Lämpötila 3°C
Kosteus 87%
Ilmanpaine 1017 hPa
Näkyvyys 10 km tai enemmän
ei pilviä alle 1500 m:ssä eikä cumulonimbus-pilviä

METAR: EGMC 182150Z 29007KT CAVOK 03/01 Q1017

Aika: 22:18 (22:18 UTC)

Sääennuste

Tämä raportti tehtiin 2 tuntia ja 22 minuuttia sitten, kello 19.56 UTC
Ennuste voimassa 18. päivästä klo 21 UTC - 19. päivään klo 06 UTC
Tuuli 6 kn lännestä
Näkyvyys 10 km tai enemmän
Muutamia pilviä 3000 ft:n korkeudessa
Tulossa
18. päivästä klo 22 UTC - 19. päivään klo 01 UTC
Näkyvyys: 8000 m
Todennäköisyys 40%
19. päivästä klo 01 UTC - 19. päivään klo 06 UTC
Näkyvyys: 3000 m
utua

TAF: EGMC 181956Z 1821/1906 28006KT 9999 FEW030 BECMG 1822/1901 8000 PROB40 1901/1906 3000 BR

Säähavainnot ja -ennusteet yli 4000 lentoasemalta (METAR- ja TAF-raportit).

Käytössä olevat sääasemat on merkitty karttaan keltaisilla ja punaisilla pisteillä.

Aseta hiiri pisteen päälle nähdäksesi sääaseman nimen.

Klikkaa sitten nähdäksesi säähavainnot ja -ennusteet.

Kartan vaihtaminen: klikkaa mustalla rastilla varustettuja vihreitä pisteitä, niin voit zoomata sisään; viivalla varustettua vihreää pistettä, niin voit zoomata ulos tai vihreitä nuolia, niin pääset viereisille kartoille.


METAR-TAF: